createdAt,value
2019-02-04T00:00:37.800Z,1009.05
2019-02-04T00:01:37.817Z,1009.04
2019-02-04T00:02:37.832Z,1009.02
2019-02-04T00:03:37.849Z,1009.04
2019-02-04T00:04:37.865Z,1009.02
2019-02-04T00:05:37.881Z,1009.02
2019-02-04T00:06:37.908Z,1009.05
2019-02-04T00:07:37.914Z,1009.08
2019-02-04T00:08:37.929Z,1009.1
2019-02-04T00:09:37.946Z,1009.05
2019-02-04T00:10:37.963Z,1009.06
2019-02-04T00:11:37.978Z,1009.09
2019-02-04T00:12:37.996Z,1009.1
2019-02-04T00:13:38.022Z,1009.07
2019-02-04T00:14:38.027Z,1009.09
2019-02-04T00:15:38.045Z,1009.06
2019-02-04T00:16:40.734Z,1009.1
2019-02-04T00:17:38.076Z,1009.07
2019-02-04T00:18:38.093Z,1009.07
2019-02-04T00:19:38.110Z,1009.05
2019-02-04T00:20:38.125Z,1009.03
2019-02-04T00:21:38.142Z,1009
2019-02-04T00:22:38.159Z,1009
2019-02-04T00:23:38.174Z,1008.96
2019-02-04T00:24:38.190Z,1008.98
2019-02-04T00:25:38.207Z,1008.95
2019-02-04T00:26:38.223Z,1008.98
2019-02-04T00:27:38.238Z,1008.97
2019-02-04T00:28:38.254Z,1008.94
2019-02-04T00:29:38.270Z,1008.95
2019-02-04T00:30:38.288Z,1008.93
2019-02-04T00:31:38.304Z,1008.91
2019-02-04T00:32:38.320Z,1008.9
2019-02-04T00:33:38.336Z,1008.91
2019-02-04T00:34:38.352Z,1008.9
2019-02-04T00:35:38.368Z,1008.88
2019-02-04T00:36:38.386Z,1008.89
2019-02-04T00:37:38.399Z,1008.85
2019-02-04T00:38:38.419Z,1008.83
2019-02-04T00:39:38.433Z,1008.81
2019-02-04T00:40:38.448Z,1008.77
2019-02-04T00:41:38.466Z,1008.8
2019-02-04T00:42:38.483Z,1008.78
2019-02-04T00:43:38.496Z,1008.84
2019-02-04T00:44:38.512Z,1008.8
2019-02-04T00:45:38.529Z,1008.83
2019-02-04T00:46:38.544Z,1008.77
2019-02-04T00:47:38.562Z,1008.81
2019-02-04T00:48:38.580Z,1008.87
2019-02-04T00:49:38.594Z,1008.86
2019-02-04T00:50:38.631Z,1008.83
2019-02-04T00:51:38.625Z,1008.86
2019-02-04T00:52:38.643Z,1008.83
2019-02-04T00:53:38.661Z,1008.82
2019-02-04T00:54:38.673Z,1008.87
2019-02-04T00:55:38.690Z,1008.84
2019-02-04T00:56:38.709Z,1008.82
2019-02-04T00:57:38.723Z,1008.84
2019-02-04T00:58:38.737Z,1008.78
2019-02-04T00:59:38.755Z,1008.85
2019-02-04T01:00:38.770Z,1008.88
2019-02-04T01:01:38.786Z,1008.9
2019-02-04T01:02:38.801Z,1008.95
2019-02-04T01:03:38.818Z,1008.96
2019-02-04T01:04:38.836Z,1008.99
2019-02-04T01:05:38.850Z,1009.06
2019-02-04T01:06:38.866Z,1008.99
2019-02-04T01:07:38.884Z,1009.08
2019-02-04T01:08:38.899Z,1009.09
2019-02-04T01:09:38.914Z,1009.07
2019-02-04T01:10:38.930Z,1009.11
2019-02-04T01:11:38.960Z,1009.09
2019-02-04T01:12:38.964Z,1009.08
2019-02-04T01:13:38.979Z,1009.08
2019-02-04T01:14:38.995Z,1009.12
2019-02-04T01:15:39.012Z,1009.04
2019-02-04T01:16:39.027Z,1009.07
2019-02-04T01:17:39.043Z,1009.04
2019-02-04T01:18:39.059Z,1009.06
2019-02-04T01:19:39.073Z,1009.04
2019-02-04T01:20:39.090Z,1009
2019-02-04T01:21:39.106Z,1008.99
2019-02-04T01:22:39.125Z,1008.99
2019-02-04T01:23:39.140Z,1008.96
2019-02-04T01:24:39.155Z,1009.03
2019-02-04T01:25:39.171Z,1009.05
2019-02-04T01:26:39.187Z,1009.08
2019-02-04T01:27:39.203Z,1009.13
2019-02-04T01:28:39.219Z,1009.15
2019-02-04T01:29:39.235Z,1009.16
2019-02-04T01:30:39.250Z,1009.18
2019-02-04T01:31:39.266Z,1009.21
2019-02-04T01:32:39.282Z,1009.22
2019-02-04T01:33:39.299Z,1009.22
2019-02-04T01:34:39.320Z,1009.3
2019-02-04T01:35:39.330Z,1009.25
2019-02-04T01:36:39.347Z,1009.28
2019-02-04T01:37:39.377Z,1009.26
2019-02-04T01:38:39.379Z,1009.26
2019-02-04T01:39:39.394Z,1009.26
2019-02-04T01:40:39.410Z,1009.28
2019-02-04T01:41:39.424Z,1009.26
2019-02-04T01:42:39.444Z,1009.26
2019-02-04T01:43:39.457Z,1009.27
2019-02-04T01:44:39.474Z,1009.32
2019-02-04T01:45:39.490Z,1009.29
2019-02-04T01:46:39.505Z,1009.29
2019-02-04T01:47:39.524Z,1009.31
2019-02-04T01:48:39.536Z,1009.31
2019-02-04T01:49:39.552Z,1009.3
2019-02-04T01:50:39.568Z,1009.33
2019-02-04T01:51:39.585Z,1009.35
2019-02-04T01:52:39.599Z,1009.33
2019-02-04T01:53:39.615Z,1009.37
2019-02-04T01:54:39.632Z,1009.38
2019-02-04T01:55:39.649Z,1009.39
2019-02-04T01:56:39.664Z,1009.41
2019-02-04T01:57:39.679Z,1009.42
2019-02-04T01:58:39.697Z,1009.44
2019-02-04T01:59:39.711Z,1009.45
2019-02-04T02:00:39.727Z,1009.49
2019-02-04T02:01:39.743Z,1009.47
2019-02-04T02:02:39.760Z,1009.49
2019-02-04T02:03:39.773Z,1009.53
2019-02-04T02:04:39.790Z,1009.54
2019-02-04T02:05:39.808Z,1009.56
2019-02-04T02:06:39.824Z,1009.48
2019-02-04T02:07:39.839Z,1009.5
2019-02-04T02:08:39.854Z,1009.47
2019-02-04T02:09:39.871Z,1009.46
2019-02-04T02:10:39.888Z,1009.43
2019-02-04T02:11:39.902Z,1009.46
2019-02-04T02:12:39.918Z,1009.44
2019-02-04T02:13:39.935Z,1009.46
2019-02-04T02:14:39.950Z,1009.5
2019-02-04T02:15:39.964Z,1009.49
2019-02-04T02:16:39.982Z,1009.47
2019-02-04T02:17:39.996Z,1009.54
2019-02-04T02:18:40.013Z,1009.56
2019-02-04T02:19:40.028Z,1009.54
2019-02-04T02:20:40.046Z,1009.58
2019-02-04T02:21:40.060Z,1009.52
2019-02-04T02:22:40.080Z,1009.53
2019-02-04T02:23:40.093Z,1009.52
2019-02-04T02:24:40.107Z,1009.6
2019-02-04T02:25:40.125Z,1009.56
2019-02-04T02:26:40.142Z,1009.59
2019-02-04T02:27:40.155Z,1009.64
2019-02-04T02:28:40.171Z,1009.61
2019-02-04T02:29:40.187Z,1009.66
2019-02-04T02:30:40.203Z,1009.65
2019-02-04T02:31:40.219Z,1009.64
2019-02-04T02:32:40.244Z,1009.64
2019-02-04T02:33:40.250Z,1009.66
2019-02-04T02:34:40.266Z,1009.64
2019-02-04T02:35:40.282Z,1009.63
2019-02-04T02:36:40.298Z,1009.61
2019-02-04T02:37:40.314Z,1009.62
2019-02-04T02:38:40.330Z,1009.6
2019-02-04T02:39:40.346Z,1009.61
2019-02-04T02:40:40.365Z,1009.6
2019-02-04T02:41:40.376Z,1009.64
2019-02-04T02:42:40.393Z,1009.63
2019-02-04T02:43:40.408Z,1009.68
2019-02-04T02:44:40.432Z,1009.69
2019-02-04T02:45:40.439Z,1009.71
2019-02-04T02:46:40.456Z,1009.73
2019-02-04T02:47:40.471Z,1009.73
2019-02-04T02:48:40.487Z,1009.73
2019-02-04T02:49:40.503Z,1009.73
2019-02-04T02:50:40.519Z,1009.71
2019-02-04T02:51:40.535Z,1009.68
2019-02-04T02:52:40.550Z,1009.73
2019-02-04T02:53:40.570Z,1009.69
2019-02-04T02:54:40.582Z,1009.72
2019-02-04T02:55:40.598Z,1009.76
2019-02-04T02:56:40.613Z,1009.75
2019-02-04T02:57:40.630Z,1009.8
2019-02-04T02:58:40.645Z,1009.81
2019-02-04T02:59:40.661Z,1009.84
2019-02-04T03:00:40.684Z,1009.86
2019-02-04T03:01:40.695Z,1009.83
2019-02-04T03:02:40.709Z,1009.83
2019-02-04T03:03:40.727Z,1009.85
2019-02-04T03:04:40.741Z,1009.78
2019-02-04T03:05:40.757Z,1009.8
2019-02-04T03:06:40.773Z,1009.74
2019-02-04T03:07:40.788Z,1009.77
2019-02-04T03:08:40.804Z,1009.78
2019-02-04T03:09:40.819Z,1009.82
2019-02-04T03:10:40.835Z,1009.82
2019-02-04T03:11:40.854Z,1009.83
2019-02-04T03:12:40.865Z,1009.82
2019-02-04T03:13:40.881Z,1009.86
2019-02-04T03:14:40.901Z,1009.86
2019-02-04T03:15:40.914Z,1009.89
2019-02-04T03:16:40.930Z,1009.84
2019-02-04T03:17:50.946Z,1009.85
2019-02-04T03:18:40.961Z,1009.82
2019-02-04T03:19:40.977Z,1009.84
2019-02-04T03:20:41.045Z,1009.84
2019-02-04T03:21:41.008Z,1009.87
2019-02-04T03:22:41.024Z,1009.86
2019-02-04T03:23:41.040Z,1009.84
2019-02-04T03:24:41.055Z,1009.87
2019-02-04T03:25:41.073Z,1009.86
2019-02-04T03:26:41.087Z,1009.85
2019-02-04T03:27:41.132Z,1009.9
2019-02-04T03:28:41.117Z,1009.91
2019-02-04T03:29:41.134Z,1009.94
2019-02-04T03:30:41.161Z,1009.94
2019-02-04T03:31:45.663Z,1009.94
2019-02-04T03:32:41.182Z,1009.98
2019-02-04T03:33:41.198Z,1009.97
2019-02-04T03:34:41.211Z,1009.95
2019-02-04T03:35:41.229Z,1010.01
2019-02-04T03:36:41.244Z,1010
2019-02-04T03:37:41.260Z,1009.97
2019-02-04T03:38:41.275Z,1010.01
2019-02-04T03:39:41.290Z,1010.01
2019-02-04T03:40:41.377Z,1010.01
2019-02-04T03:41:41.323Z,1010.05
2019-02-04T03:42:41.338Z,1010.02
2019-02-04T03:43:41.354Z,1010.05
2019-02-04T03:44:41.372Z,1010.05
2019-02-04T03:45:41.385Z,1010.01
2019-02-04T03:46:41.401Z,1010.04
2019-02-04T03:47:41.416Z,1010.06
2019-02-04T03:48:41.431Z,1010.07
2019-02-04T03:49:41.446Z,1010.04
2019-02-04T03:50:41.464Z,1010.06
2019-02-04T03:51:41.480Z,1010.04
2019-02-04T03:52:41.503Z,1010.04
2019-02-04T03:53:41.510Z,1010.03
2019-02-04T03:54:41.528Z,1010.06
2019-02-04T03:55:41.543Z,1010.06
2019-02-04T03:56:41.559Z,1010.07
2019-02-04T03:57:41.650Z,1010.05
2019-02-04T03:58:41.589Z,1010.09
2019-02-04T03:59:41.605Z,1010.05
2019-02-04T04:00:41.621Z,1010.07
2019-02-04T04:01:41.636Z,1010.04
2019-02-04T04:02:41.652Z,1010.11
2019-02-04T04:03:41.667Z,1010.11
2019-02-04T04:04:41.682Z,1010.13
2019-02-04T04:05:41.699Z,1010.15
2019-02-04T04:06:41.715Z,1010.17
2019-02-04T04:07:41.729Z,1010.16
2019-02-04T04:08:41.746Z,1010.17
2019-02-04T04:09:41.761Z,1010.18
2019-02-04T04:10:41.783Z,1010.13
2019-02-04T04:11:41.793Z,1010.16
2019-02-04T04:12:41.810Z,1010.11
2019-02-04T04:13:41.825Z,1010.12
2019-02-04T04:14:41.840Z,1010.16
2019-02-04T04:15:41.856Z,1010.2
2019-02-04T04:16:41.871Z,1010.17
2019-02-04T04:17:41.888Z,1010.21
2019-02-04T04:18:41.903Z,1010.19
2019-02-04T04:19:41.919Z,1010.17
2019-02-04T04:20:41.936Z,1010.16
2019-02-04T04:21:41.950Z,1010.19
2019-02-04T04:22:41.967Z,1010.21
2019-02-04T04:23:41.982Z,1010.21
2019-02-04T04:24:41.998Z,1010.18
2019-02-04T04:25:42.014Z,1010.17
2019-02-04T04:26:42.028Z,1010.16
2019-02-04T04:27:42.045Z,1010.21
2019-02-04T04:28:42.059Z,1010.19
2019-02-04T04:29:42.075Z,1010.26
2019-02-04T04:30:42.092Z,1010.24
2019-02-04T04:31:42.106Z,1010.26
2019-02-04T04:32:42.277Z,1010.24
2019-02-04T04:33:42.139Z,1010.34
2019-02-04T04:34:42.154Z,1010.33
2019-02-04T04:35:42.170Z,1010.33
2019-02-04T04:36:42.191Z,1010.29
2019-02-04T04:37:42.202Z,1010.34
2019-02-04T04:38:42.217Z,1010.31
2019-02-04T04:39:42.234Z,1010.25
2019-02-04T04:40:42.266Z,1010.3
2019-02-04T04:41:42.265Z,1010.33
2019-02-04T04:42:42.281Z,1010.37
2019-02-04T04:43:42.297Z,1010.34
2019-02-04T04:44:42.312Z,1010.36
2019-02-04T04:45:42.328Z,1010.33
2019-02-04T04:46:42.343Z,1010.4
2019-02-04T04:47:42.408Z,1010.34
2019-02-04T04:48:42.378Z,1010.31
2019-02-04T04:49:42.390Z,1010.33
2019-02-04T04:50:42.406Z,1010.29
2019-02-04T04:51:42.422Z,1010.27
2019-02-04T04:52:42.438Z,1010.33
2019-02-04T04:53:42.452Z,1010.32
2019-02-04T04:54:42.469Z,1010.33
2019-02-04T04:55:42.483Z,1010.31
2019-02-04T04:56:42.500Z,1010.32
2019-02-04T04:57:42.516Z,1010.32
2019-02-04T04:58:42.530Z,1010.31
2019-02-04T04:59:42.547Z,1010.31
2019-02-04T05:00:42.563Z,1010.29
2019-02-04T05:01:42.578Z,1010.28
2019-02-04T05:02:42.664Z,1010.28
2019-02-04T05:03:42.609Z,1010.3
2019-02-04T05:04:42.626Z,1010.28
2019-02-04T05:05:42.642Z,1010.31
2019-02-04T05:06:42.659Z,1010.27
2019-02-04T05:07:42.682Z,1010.25
2019-02-04T05:08:42.690Z,1010.26
2019-02-04T05:09:42.703Z,1010.27
2019-02-04T05:10:42.720Z,1010.23
2019-02-04T05:11:42.735Z,1010.23
2019-02-04T05:12:42.752Z,1010.26
2019-02-04T05:13:42.768Z,1010.23
2019-02-04T05:14:42.784Z,1010.23
2019-02-04T05:15:42.798Z,1010.24
2019-02-04T05:16:42.815Z,1010.19
2019-02-04T05:17:42.830Z,1010.19
2019-02-04T05:18:42.846Z,1010.19
2019-02-04T05:19:42.864Z,1010.17
2019-02-04T05:20:42.877Z,1010.16
2019-02-04T05:21:42.894Z,1010.18
2019-02-04T05:22:42.910Z,1010.18
2019-02-04T05:23:42.926Z,1010.19
2019-02-04T05:24:42.940Z,1010.23
2019-02-04T05:25:42.957Z,1010.17
2019-02-04T05:26:42.973Z,1010.21
2019-02-04T05:27:42.990Z,1010.16
2019-02-04T05:28:43.003Z,1010.18
2019-02-04T05:29:43.024Z,1010.17
2019-02-04T05:30:43.034Z,1010.13
2019-02-04T05:31:43.051Z,1010.1
2019-02-04T05:32:43.066Z,1010.09
2019-02-04T05:33:43.083Z,1010.1
2019-02-04T05:34:43.098Z,1010.12
2019-02-04T05:35:43.114Z,1010.12
2019-02-04T05:36:43.129Z,1010.08
2019-02-04T05:37:43.149Z,1010.05
2019-02-04T05:38:43.163Z,1010.04
2019-02-04T05:39:43.177Z,1010.05
2019-02-04T05:40:43.199Z,1010.05
2019-02-04T05:41:43.208Z,1010.03
2019-02-04T05:42:43.225Z,1010.05
2019-02-04T05:43:43.240Z,1010.03
2019-02-04T05:44:43.257Z,1010.04
2019-02-04T05:45:43.273Z,1010.01
2019-02-04T05:46:43.290Z,1010.03
2019-02-04T05:47:43.304Z,1009.98
2019-02-04T05:48:49.190Z,1010.04
2019-02-04T05:49:43.335Z,1010.01
2019-02-04T05:50:43.352Z,1010
2019-02-04T05:51:43.367Z,1010.03
2019-02-04T05:52:43.381Z,1010.06
2019-02-04T05:53:43.397Z,1010.07
2019-02-04T05:54:43.413Z,1010.07
2019-02-04T05:55:43.430Z,1010.13
2019-02-04T05:56:43.445Z,1010.13
2019-02-04T05:57:43.460Z,1010.14
2019-02-04T05:58:43.476Z,1010.15
2019-02-04T05:59:43.492Z,1010.2
2019-02-04T06:00:43.508Z,1010.14
2019-02-04T06:01:43.525Z,1010.12
2019-02-04T06:02:43.538Z,1010.14
2019-02-04T06:03:43.556Z,1010.12
2019-02-04T06:04:43.571Z,1010.16
2019-02-04T06:05:43.585Z,1010.1
2019-02-04T06:06:43.603Z,1010.16
2019-02-04T06:07:43.619Z,1010.17
2019-02-04T06:08:43.634Z,1010.17
2019-02-04T06:09:43.648Z,1010.14
2019-02-04T06:10:43.665Z,1010.14
2019-02-04T06:11:43.681Z,1010.16
2019-02-04T06:12:43.696Z,1010.15
2019-02-04T06:13:43.713Z,1010.17
2019-02-04T06:14:43.728Z,1010.16
2019-02-04T06:15:43.744Z,1010.14
2019-02-04T06:16:43.759Z,1010.16
2019-02-04T06:17:43.776Z,1010.18
2019-02-04T06:18:43.791Z,1010.2
2019-02-04T06:19:43.807Z,1010.16
2019-02-04T06:20:43.822Z,1010.21
2019-02-04T06:21:43.838Z,1010.21
2019-02-04T06:22:43.854Z,1010.21
2019-02-04T06:23:43.869Z,1010.18
2019-02-04T06:24:43.885Z,1010.2
2019-02-04T06:25:43.902Z,1010.18
2019-02-04T06:26:43.916Z,1010.17
2019-02-04T06:27:43.932Z,1010.13
2019-02-04T06:28:43.948Z,1010.15
2019-02-04T06:29:43.964Z,1010.13
2019-02-04T06:30:43.979Z,1010.09
2019-02-04T06:31:43.995Z,1010.15
2019-02-04T06:32:44.009Z,1010.16
2019-02-04T06:33:44.025Z,1010.1
2019-02-04T06:34:44.042Z,1010.05
2019-02-04T06:35:44.058Z,1010.09
2019-02-04T06:36:44.072Z,1010.1
2019-02-04T06:37:46.635Z,1010.1
2019-02-04T06:38:44.104Z,1010.07
2019-02-04T06:39:44.120Z,1010.07
2019-02-04T06:40:44.135Z,1010.07
2019-02-04T06:41:44.151Z,1010.11
2019-02-04T06:42:44.167Z,1010.1
2019-02-04T06:43:44.182Z,1010.13
2019-02-04T06:44:44.196Z,1010.13
2019-02-04T06:45:45.981Z,1010.15
2019-02-04T06:46:44.229Z,1010.15
2019-02-04T06:47:44.247Z,1010.11
2019-02-04T06:48:44.259Z,1010.11
2019-02-04T06:49:44.275Z,1010.07
2019-02-04T06:50:44.290Z,1010.13
2019-02-04T06:51:44.310Z,1010.12
2019-02-04T06:52:44.322Z,1010.18
2019-02-04T06:53:44.337Z,1010.18
2019-02-04T06:54:44.359Z,1010.21
2019-02-04T06:55:44.369Z,1010.21
2019-02-04T06:56:44.386Z,1010.22
2019-02-04T06:57:44.399Z,1010.25
2019-02-04T06:58:44.415Z,1010.28
2019-02-04T06:59:44.429Z,1010.27
2019-02-04T07:00:44.446Z,1010.28
2019-02-04T07:01:44.476Z,1010.27
2019-02-04T07:02:44.477Z,1010.22
2019-02-04T07:03:44.492Z,1010.25
2019-02-04T07:04:44.508Z,1010.24
2019-02-04T07:05:44.525Z,1010.27
2019-02-04T07:06:44.539Z,1010.26
2019-02-04T07:07:44.555Z,1010.28
2019-02-04T07:08:44.570Z,1010.34
2019-02-04T07:09:44.595Z,1010.33
2019-02-04T07:10:44.601Z,1010.38
2019-02-04T07:11:44.631Z,1010.35
2019-02-04T07:12:44.700Z,1010.35
2019-02-04T07:13:44.649Z,1010.38
2019-02-04T07:14:44.663Z,1010.36
2019-02-04T07:15:44.680Z,1010.32
2019-02-04T07:16:44.694Z,1010.35
2019-02-04T07:17:44.712Z,1010.34
2019-02-04T07:18:44.725Z,1010.37
2019-02-04T07:19:44.741Z,1010.4
2019-02-04T07:20:44.757Z,1010.37
2019-02-04T07:21:44.772Z,1010.36
2019-02-04T07:22:44.790Z,1010.37
2019-02-04T07:23:44.802Z,1010.38
2019-02-04T07:24:44.820Z,1010.38
2019-02-04T07:25:44.840Z,1010.41
2019-02-04T07:26:44.850Z,1010.43
2019-02-04T07:27:44.866Z,1010.38
2019-02-04T07:28:44.879Z,1010.41
2019-02-04T07:29:44.896Z,1010.4
2019-02-04T07:30:44.911Z,1010.37
2019-02-04T07:31:44.926Z,1010.36
2019-02-04T07:32:44.944Z,1010.41
2019-02-04T07:33:44.957Z,1010.43
2019-02-04T07:34:44.973Z,1010.41
2019-02-04T07:35:44.989Z,1010.45
2019-02-04T07:36:45.004Z,1010.43
2019-02-04T07:37:45.019Z,1010.45
2019-02-04T07:38:45.036Z,1010.44
2019-02-04T07:39:45.055Z,1010.46
2019-02-04T07:40:45.065Z,1010.44
2019-02-04T07:41:45.081Z,1010.43
2019-02-04T07:42:45.099Z,1010.43
2019-02-04T07:43:45.114Z,1010.45
2019-02-04T07:44:45.128Z,1010.47
2019-02-04T07:45:45.143Z,1010.43
2019-02-04T07:46:45.160Z,1010.41
2019-02-04T07:47:45.175Z,1010.43
2019-02-04T07:48:45.197Z,1010.41
2019-02-04T07:49:45.207Z,1010.42
2019-02-04T07:50:45.222Z,1010.43
2019-02-04T07:51:45.238Z,1010.45
2019-02-04T07:52:45.253Z,1010.4
2019-02-04T07:53:45.269Z,1010.39
2019-02-04T07:54:45.283Z,1010.34
2019-02-04T07:55:45.300Z,1010.35
2019-02-04T07:56:45.314Z,1010.35
2019-02-04T07:57:45.329Z,1010.33
2019-02-04T07:58:45.346Z,1010.37
2019-02-04T07:59:45.365Z,1010.31
2019-02-04T08:00:45.380Z,1010.33
2019-02-04T08:01:45.399Z,1010.31
2019-02-04T08:02:45.408Z,1010.32
2019-02-04T08:03:45.425Z,1010.32
2019-02-04T08:04:45.439Z,1010.29
2019-02-04T08:05:45.455Z,1010.31
2019-02-04T08:06:45.469Z,1010.3
2019-02-04T08:07:45.486Z,1010.29
2019-02-04T08:08:45.502Z,1010.24
2019-02-04T08:09:45.517Z,1010.29
2019-02-04T08:10:45.532Z,1010.24
2019-02-04T08:11:45.547Z,1010.25
2019-02-04T08:12:45.566Z,1010.25
2019-02-04T08:13:45.578Z,1010.26
2019-02-04T08:14:45.597Z,1010.23
2019-02-04T08:15:45.610Z,1010.24
2019-02-04T08:16:45.625Z,1010.23
2019-02-04T08:17:45.641Z,1010.25
2019-02-04T08:18:45.656Z,1010.29
2019-02-04T08:19:47.179Z,1010.26
2019-02-04T08:20:45.689Z,1010.22
2019-02-04T08:21:45.705Z,1010.22
2019-02-04T08:22:45.720Z,1010.19
2019-02-04T08:23:45.736Z,1010.16
2019-02-04T08:24:45.752Z,1010.19
2019-02-04T08:25:45.766Z,1010.13
2019-02-04T08:26:45.783Z,1010.13
2019-02-04T08:27:45.799Z,1010.13
2019-02-04T08:28:45.812Z,1010.12
2019-02-04T08:29:45.829Z,1010.12
2019-02-04T08:30:45.846Z,1010.14
2019-02-04T08:31:45.860Z,1010.14
2019-02-04T08:32:45.876Z,1010.17
2019-02-04T08:33:45.892Z,1010.14
2019-02-04T08:34:45.907Z,1010.13
2019-02-04T08:35:45.924Z,1010.19
2019-02-04T08:36:46.435Z,1010.18
2019-02-04T08:37:45.954Z,1010.14
2019-02-04T08:38:45.970Z,1010.13
2019-02-04T08:39:45.986Z,1010.18
2019-02-04T08:40:46.002Z,1010.14
2019-02-04T08:41:46.016Z,1010.12
2019-02-04T08:42:46.032Z,1010.12
2019-02-04T08:43:46.049Z,1010.15
2019-02-04T08:44:46.064Z,1010.13
2019-02-04T08:45:46.080Z,1010.15
2019-02-04T08:46:46.095Z,1010.2
2019-02-04T08:47:46.112Z,1010.25
2019-02-04T08:48:46.127Z,1010.18
2019-02-04T08:49:46.142Z,1010.16
2019-02-04T08:50:46.159Z,1010.19
2019-02-04T08:51:46.175Z,1010.19
2019-02-04T08:52:46.190Z,1010.18
2019-02-04T08:53:46.211Z,1010.16
2019-02-04T08:54:46.221Z,1010.1
2019-02-04T08:55:46.236Z,1010.1
2019-02-04T08:56:46.253Z,1010.11
2019-02-04T08:57:46.267Z,1010.17
2019-02-04T08:58:46.284Z,1010.17
2019-02-04T08:59:46.300Z,1010.13
2019-02-04T09:00:46.316Z,1010.15
2019-02-04T09:01:46.331Z,1010.18
2019-02-04T09:02:46.348Z,1010.15
2019-02-04T09:03:46.362Z,1010.16
2019-02-04T09:04:46.378Z,1010.19
2019-02-04T09:05:46.394Z,1010.18
2019-02-04T09:06:46.433Z,1010.23
2019-02-04T09:07:46.458Z,1010.22
2019-02-04T09:08:46.443Z,1010.22
2019-02-04T09:09:46.456Z,1010.26
2019-02-04T09:10:46.475Z,1010.25
2019-02-04T09:11:46.487Z,1010.23
2019-02-04T09:12:46.504Z,1010.25
2019-02-04T09:13:46.531Z,1010.24
2019-02-04T09:14:46.575Z,1010.23
2019-02-04T09:15:46.552Z,1010.26
2019-02-04T09:16:46.568Z,1010.31
2019-02-04T09:17:46.584Z,1010.33
2019-02-04T09:18:46.598Z,1010.3
2019-02-04T09:19:46.614Z,1010.32
2019-02-04T09:20:46.631Z,1010.29
2019-02-04T09:21:46.646Z,1010.31
2019-02-04T09:22:46.662Z,1010.36
2019-02-04T09:23:46.679Z,1010.35
2019-02-04T09:24:46.696Z,1010.31
2019-02-04T09:25:46.710Z,1010.29
2019-02-04T09:26:46.726Z,1010.31
2019-02-04T09:27:46.742Z,1010.3
2019-02-04T09:28:46.769Z,1010.31
2019-02-04T09:29:46.775Z,1010.27
2019-02-04T09:30:46.790Z,1010.25
2019-02-04T09:31:46.806Z,1010.22
2019-02-04T09:32:46.822Z,1010.2
2019-02-04T09:33:46.837Z,1010.25
2019-02-04T09:34:46.852Z,1010.19
2019-02-04T09:35:46.871Z,1010.18
2019-02-04T09:36:46.886Z,1010.18
2019-02-04T09:37:46.904Z,1010.18
2019-02-04T09:38:46.919Z,1010.16
2019-02-04T09:39:46.933Z,1010.09
2019-02-04T09:40:46.949Z,1010.08
2019-02-04T09:41:46.965Z,1010.04
2019-02-04T09:42:46.980Z,1010.09
2019-02-04T09:43:47.019Z,1010.03
2019-02-04T09:44:47.011Z,1009.98
2019-02-04T09:45:47.036Z,1010.02
2019-02-04T09:46:47.045Z,1009.96
2019-02-04T09:47:47.059Z,1010.02
2019-02-04T09:48:47.076Z,1009.97
2019-02-04T09:49:47.094Z,1009.97
2019-02-04T09:50:47.109Z,1009.97
2019-02-04T09:51:47.124Z,1009.95
2019-02-04T09:52:47.138Z,1009.97
2019-02-04T09:53:47.156Z,1009.95
2019-02-04T09:54:47.172Z,1009.96
2019-02-04T09:55:47.186Z,1009.94
2019-02-04T09:56:47.206Z,1009.95
2019-02-04T09:57:47.218Z,1009.89
2019-02-04T09:58:47.234Z,1009.9
2019-02-04T09:59:47.263Z,1009.92
2019-02-04T10:00:47.266Z,1009.87
2019-02-04T10:01:47.286Z,1009.89
2019-02-04T10:02:47.299Z,1009.89
2019-02-04T10:03:47.314Z,1009.89
2019-02-04T10:04:47.332Z,1009.93
2019-02-04T10:05:47.347Z,1009.94
2019-02-04T10:06:47.362Z,1009.93
2019-02-04T10:07:47.378Z,1009.92
2019-02-04T10:08:47.396Z,1009.88
2019-02-04T10:09:47.411Z,1009.88
2019-02-04T10:10:47.426Z,1009.84
2019-02-04T10:11:47.443Z,1009.87
2019-02-04T10:12:47.459Z,1009.85
2019-02-04T10:13:47.474Z,1009.84
2019-02-04T10:14:47.506Z,1009.81
2019-02-04T10:15:47.531Z,1009.81
2019-02-04T10:16:47.521Z,1009.81
2019-02-04T10:17:47.539Z,1009.8
2019-02-04T10:18:47.585Z,1009.78
2019-02-04T10:19:47.611Z,1009.81
2019-02-04T10:20:47.630Z,1009.77
2019-02-04T10:21:47.758Z,1009.77
2019-02-04T10:22:47.619Z,1009.75
2019-02-04T10:23:47.639Z,1009.79
2019-02-04T10:24:47.686Z,1009.82
2019-02-04T10:25:47.676Z,1009.83
2019-02-04T10:26:47.685Z,1009.81
2019-02-04T10:27:47.738Z,1009.83
2019-02-04T10:28:47.717Z,1009.85
2019-02-04T10:29:47.732Z,1009.78
2019-02-04T10:30:47.793Z,1009.78
2019-02-04T10:31:47.769Z,1009.77
2019-02-04T10:32:47.784Z,1009.77
2019-02-04T10:33:47.797Z,1009.75
2019-02-04T10:34:47.850Z,1009.75
2019-02-04T10:35:47.829Z,1009.76
2019-02-04T10:36:47.864Z,1009.76
2019-02-04T10:37:47.904Z,1009.78
2019-02-04T10:38:47.876Z,1009.79
2019-02-04T10:39:47.926Z,1009.84
2019-02-04T10:40:47.915Z,1009.76
2019-02-04T10:41:47.969Z,1009.71
2019-02-04T10:42:47.986Z,1009.72
2019-02-04T10:43:47.981Z,1009.72
2019-02-04T10:44:47.975Z,1009.7
2019-02-04T10:45:47.991Z,1009.69
2019-02-04T10:46:48.011Z,1009.67
2019-02-04T10:47:48.038Z,1009.63
2019-02-04T10:48:48.093Z,1009.64
2019-02-04T10:49:48.054Z,1009.61
2019-02-04T10:50:48.072Z,1009.6
2019-02-04T10:51:48.085Z,1009.55
2019-02-04T10:52:48.137Z,1009.55
2019-02-04T10:53:48.160Z,1009.56
2019-02-04T10:54:48.173Z,1009.53
2019-02-04T10:55:48.196Z,1009.51
2019-02-04T10:56:48.200Z,1009.47
2019-02-04T10:57:48.197Z,1009.49
2019-02-04T10:58:48.211Z,1009.46
2019-02-04T10:59:48.216Z,1009.45
2019-02-04T11:00:48.231Z,1009.46
2019-02-04T11:01:48.266Z,1009.46
2019-02-04T11:02:48.361Z,1009.49
2019-02-04T11:03:48.302Z,1009.48
2019-02-04T11:04:48.426Z,1009.5
2019-02-04T11:05:48.371Z,1009.42
2019-02-04T11:06:48.416Z,1009.41
2019-02-04T11:07:48.378Z,1009.39
2019-02-04T11:08:48.368Z,1009.39
2019-02-04T11:09:48.379Z,1009.38
2019-02-04T11:10:48.396Z,1009.35
2019-02-04T11:11:48.456Z,1009.31
2019-02-04T11:12:48.429Z,1009.27
2019-02-04T11:13:48.460Z,1009.27
2019-02-04T11:14:48.535Z,1009.27
2019-02-04T11:15:48.521Z,1009.25
2019-02-04T11:16:48.600Z,1009.27
2019-02-04T11:17:48.518Z,1009.24
2019-02-04T11:18:48.526Z,1009.28
2019-02-04T11:19:48.587Z,1009.28
2019-02-04T11:20:57.395Z,1009.29
2019-02-04T11:21:48.575Z,1009.28
2019-02-04T11:22:48.590Z,1009.25
2019-02-04T11:23:48.608Z,1009.31
2019-02-04T11:24:48.653Z,1009.3
2019-02-04T11:25:48.639Z,1009.26
2019-02-04T11:26:48.657Z,1009.27
2019-02-04T11:27:48.673Z,1009.24
2019-02-04T11:28:48.694Z,1009.21
2019-02-04T11:29:48.741Z,1009.23
2019-02-04T11:30:48.728Z,1009.2
2019-02-04T11:31:48.740Z,1009.22
2019-02-04T11:32:48.789Z,1009.21
2019-02-04T11:33:48.770Z,1009.24
2019-02-04T11:34:49.320Z,1009.24
2019-02-04T11:35:48.819Z,1009.26
2019-02-04T11:36:48.848Z,1009.25
2019-02-04T11:37:48.877Z,1009.27
2019-02-04T11:38:48.876Z,1009.24
2019-02-04T11:39:48.876Z,1009.24
2019-02-04T11:40:48.910Z,1009.26
2019-02-04T11:41:48.902Z,1009.25
2019-02-04T11:42:48.936Z,1009.22
2019-02-04T11:43:48.962Z,1009.24
2019-02-04T11:44:49.001Z,1009.29
2019-02-04T11:45:48.973Z,1009.32
2019-02-04T11:46:49.031Z,1009.3
2019-02-04T11:47:49.063Z,1009.35
2019-02-04T11:48:49.018Z,1009.35
2019-02-04T11:49:49.033Z,1009.35
2019-02-04T11:50:49.049Z,1009.39
2019-02-04T11:51:49.066Z,1009.42
2019-02-04T11:52:49.087Z,1009.41
2019-02-04T11:53:49.101Z,1009.4
2019-02-04T11:54:49.116Z,1009.43
2019-02-04T11:55:49.132Z,1009.46
2019-02-04T11:56:49.150Z,1009.45
2019-02-04T11:57:49.166Z,1009.46
2019-02-04T11:58:49.183Z,1009.42
2019-02-04T11:59:49.198Z,1009.46
2019-02-04T12:00:49.215Z,1009.43
2019-02-04T12:01:49.230Z,1009.48
2019-02-04T12:02:49.248Z,1009.47
2019-02-04T12:03:49.265Z,1009.47
2019-02-04T12:04:49.282Z,1009.46
2019-02-04T12:05:49.299Z,1009.46
2019-02-04T12:06:49.319Z,1009.45
2019-02-04T12:07:49.332Z,1009.47